sensor_id;sensor_type;location;lat;lon;timestamp;P1;durP1;ratioP1;P2;durP2;ratioP2
38465;SDS011;24244;51.950;5.902;2023-03-11T00:01:57;2.55;;;1.02;;
38465;SDS011;24244;51.950;5.902;2023-03-11T00:04:24;2.08;;;1.27;;
38465;SDS011;24244;51.950;5.902;2023-03-11T00:06:51;1.02;;;0.63;;
38465;SDS011;24244;51.950;5.902;2023-03-11T00:09:18;1.63;;;0.90;;
38465;SDS011;24244;51.950;5.902;2023-03-11T00:11:46;3.28;;;1.02;;
38465;SDS011;24244;51.950;5.902;2023-03-11T00:14:15;2.03;;;1.08;;
38465;SDS011;24244;51.950;5.902;2023-03-11T00:16:42;1.67;;;1.05;;
38465;SDS011;24244;51.950;5.902;2023-03-11T00:19:09;1.63;;;1.00;;
38465;SDS011;24244;51.950;5.902;2023-03-11T00:21:36;1.67;;;1.10;;
38465;SDS011;24244;51.950;5.902;2023-03-11T00:24:03;2.47;;;1.02;;
38465;SDS011;24244;51.950;5.902;2023-03-11T00:26:33;3.08;;;1.02;;
38465;SDS011;24244;51.950;5.902;2023-03-11T00:29:02;3.55;;;1.33;;
38465;SDS011;24244;51.950;5.902;2023-03-11T00:31:29;1.83;;;1.42;;
38465;SDS011;24244;51.950;5.902;2023-03-11T00:33:56;1.65;;;1.10;;
38465;SDS011;24244;51.950;5.902;2023-03-11T00:36:24;1.23;;;0.80;;
38465;SDS011;24244;51.950;5.902;2023-03-11T00:38:54;1.67;;;0.93;;
38465;SDS011;24244;51.950;5.902;2023-03-11T00:41:21;1.45;;;0.75;;
38465;SDS011;24244;51.950;5.902;2023-03-11T00:43:47;1.50;;;0.70;;
38465;SDS011;24244;51.950;5.902;2023-03-11T00:46:16;1.77;;;1.20;;
38465;SDS011;24244;51.950;5.902;2023-03-11T00:48:43;0.90;;;0.52;;
38465;SDS011;24244;51.950;5.902;2023-03-11T00:51:10;2.05;;;1.25;;
38465;SDS011;24244;51.950;5.902;2023-03-11T00:53:40;2.15;;;1.20;;
38465;SDS011;24244;51.950;5.902;2023-03-11T00:56:07;2.75;;;0.82;;
38465;SDS011;24244;51.950;5.902;2023-03-11T00:58:36;0.93;;;0.60;;
38465;SDS011;24244;51.950;5.902;2023-03-11T01:01:06;2.63;;;0.73;;
38465;SDS011;24244;51.950;5.902;2023-03-11T01:03:37;2.67;;;0.57;;
38465;SDS011;24244;51.950;5.902;2023-03-11T01:06:04;1.52;;;0.88;;
38465;SDS011;24244;51.950;5.902;2023-03-11T01:08:32;5.00;;;3.53;;
38465;SDS011;24244;51.950;5.902;2023-03-11T01:10:59;6.32;;;3.70;;
38465;SDS011;24244;51.950;5.902;2023-03-11T01:13:26;6.15;;;3.17;;
38465;SDS011;24244;51.950;5.902;2023-03-11T01:15:55;3.80;;;2.92;;
38465;SDS011;24244;51.950;5.902;2023-03-11T01:18:22;4.70;;;1.98;;
38465;SDS011;24244;51.950;5.902;2023-03-11T01:20:58;4.55;;;2.22;;
38465;SDS011;24244;51.950;5.902;2023-03-11T01:23:25;2.70;;;1.23;;
38465;SDS011;24244;51.950;5.902;2023-03-11T01:25:52;1.55;;;0.82;;
38465;SDS011;24244;51.950;5.902;2023-03-11T01:28:19;2.17;;;0.80;;
38465;SDS011;24244;51.950;5.902;2023-03-11T01:30:46;1.60;;;0.75;;
38465;SDS011;24244;51.950;5.902;2023-03-11T01:33:14;1.05;;;0.85;;
38465;SDS011;24244;51.950;5.902;2023-03-11T01:35:43;1.65;;;1.08;;
38465;SDS011;24244;51.950;5.902;2023-03-11T01:38:12;3.92;;;1.63;;
38465;SDS011;24244;51.950;5.902;2023-03-11T01:40:41;2.25;;;0.80;;
38465;SDS011;24244;51.950;5.902;2023-03-11T01:46:14;1.30;;;0.63;;
38465;SDS011;24244;51.950;5.902;2023-03-11T01:48:44;2.95;;;1.00;;
38465;SDS011;24244;51.950;5.902;2023-03-11T01:51:15;1.50;;;1.40;;
38465;SDS011;24244;51.950;5.902;2023-03-11T01:53:49;1.10;;;0.50;;
38465;SDS011;24244;51.950;5.902;2023-03-11T01:56:16;1.85;;;0.88;;
38465;SDS011;24244;51.950;5.902;2023-03-11T01:58:44;1.02;;;0.68;;
38465;SDS011;24244;51.950;5.902;2023-03-11T02:01:15;1.90;;;0.98;;
38465;SDS011;24244;51.950;5.902;2023-03-11T02:03:42;2.65;;;0.65;;
38465;SDS011;24244;51.950;5.902;2023-03-11T02:06:10;1.00;;;0.70;;
38465;SDS011;24244;51.950;5.902;2023-03-11T02:08:39;1.77;;;0.98;;
38465;SDS011;24244;51.950;5.902;2023-03-11T02:11:10;1.30;;;0.98;;
38465;SDS011;24244;51.950;5.902;2023-03-11T02:13:42;1.52;;;0.73;;
38465;SDS011;24244;51.950;5.902;2023-03-11T02:16:10;2.55;;;1.15;;
38465;SDS011;24244;51.950;5.902;2023-03-11T02:18:39;1.08;;;0.60;;
38465;SDS011;24244;51.950;5.902;2023-03-11T02:21:12;1.58;;;0.80;;
38465;SDS011;24244;51.950;5.902;2023-03-11T02:23:49;0.93;;;0.73;;
38465;SDS011;24244;51.950;5.902;2023-03-11T02:26:26;0.93;;;0.85;;
38465;SDS011;24244;51.950;5.902;2023-03-11T02:29:01;1.27;;;0.95;;
38465;SDS011;24244;51.950;5.902;2023-03-11T02:31:32;1.70;;;0.85;;
38465;SDS011;24244;51.950;5.902;2023-03-11T02:34:02;1.50;;;0.88;;
38465;SDS011;24244;51.950;5.902;2023-03-11T02:36:35;1.27;;;0.65;;
38465;SDS011;24244;51.950;5.902;2023-03-11T02:39:03;2.55;;;0.70;;
38465;SDS011;24244;51.950;5.902;2023-03-11T02:44:17;1.10;;;0.63;;
38465;SDS011;24244;51.950;5.902;2023-03-11T02:46:44;1.90;;;1.00;;
38465;SDS011;24244;51.950;5.902;2023-03-11T02:49:11;1.38;;;1.02;;
38465;SDS011;24244;51.950;5.902;2023-03-11T02:51:40;1.48;;;0.88;;
38465;SDS011;24244;51.950;5.902;2023-03-11T02:54:07;1.70;;;0.77;;
38465;SDS011;24244;51.950;5.902;2023-03-11T02:56:34;0.88;;;0.43;;
38465;SDS011;24244;51.950;5.902;2023-03-11T02:59:00;1.83;;;0.95;;
38465;SDS011;24244;51.950;5.902;2023-03-11T03:01:29;1.27;;;0.82;;
38465;SDS011;24244;51.950;5.902;2023-03-11T03:03:56;2.22;;;1.05;;
38465;SDS011;24244;51.950;5.902;2023-03-11T03:06:23;1.20;;;0.65;;
38465;SDS011;24244;51.950;5.902;2023-03-11T03:08:50;2.58;;;1.42;;
38465;SDS011;24244;51.950;5.902;2023-03-11T03:11:17;3.15;;;1.27;;
38465;SDS011;24244;51.950;5.902;2023-03-11T03:13:53;2.20;;;0.85;;
38465;SDS011;24244;51.950;5.902;2023-03-11T03:16:19;2.33;;;1.42;;
38465;SDS011;24244;51.950;5.902;2023-03-11T03:18:48;1.50;;;0.88;;
38465;SDS011;24244;51.950;5.902;2023-03-11T03:21:15;1.00;;;0.65;;
38465;SDS011;24244;51.950;5.902;2023-03-11T03:23:42;2.05;;;0.85;;
38465;SDS011;24244;51.950;5.902;2023-03-11T03:26:10;1.25;;;0.60;;
38465;SDS011;24244;51.950;5.902;2023-03-11T03:28:38;1.77;;;1.45;;
38465;SDS011;24244;51.950;5.902;2023-03-11T03:31:05;1.77;;;0.75;;
38465;SDS011;24244;51.950;5.902;2023-03-11T03:33:34;3.20;;;1.00;;
38465;SDS011;24244;51.950;5.902;2023-03-11T03:36:05;1.50;;;0.63;;
38465;SDS011;24244;51.950;5.902;2023-03-11T03:38:33;1.45;;;0.63;;
38465;SDS011;24244;51.950;5.902;2023-03-11T03:41:00;1.45;;;1.02;;
38465;SDS011;24244;51.950;5.902;2023-03-11T03:43:27;3.05;;;1.25;;
38465;SDS011;24244;51.950;5.902;2023-03-11T03:45:54;3.47;;;1.42;;
38465;SDS011;24244;51.950;5.902;2023-03-11T03:48:22;1.65;;;1.27;;
38465;SDS011;24244;51.950;5.902;2023-03-11T03:50:49;1.85;;;1.00;;
38465;SDS011;24244;51.950;5.902;2023-03-11T03:53:17;1.98;;;1.25;;
38465;SDS011;24244;51.950;5.902;2023-03-11T03:55:47;3.47;;;1.60;;
38465;SDS011;24244;51.950;5.902;2023-03-11T03:58:17;4.03;;;1.58;;
38465;SDS011;24244;51.950;5.902;2023-03-11T04:00:44;3.15;;;1.33;;
38465;SDS011;24244;51.950;5.902;2023-03-11T04:03:11;3.47;;;1.35;;
38465;SDS011;24244;51.950;5.902;2023-03-11T04:05:38;3.10;;;1.63;;
38465;SDS011;24244;51.950;5.902;2023-03-11T04:08:05;1.77;;;1.05;;
38465;SDS011;24244;51.950;5.902;2023-03-11T04:10:33;3.25;;;1.17;;
38465;SDS011;24244;51.950;5.902;2023-03-11T04:13:00;2.70;;;1.38;;
38465;SDS011;24244;51.950;5.902;2023-03-11T04:15:27;2.65;;;1.25;;
38465;SDS011;24244;51.950;5.902;2023-03-11T04:17:54;1.65;;;0.93;;
38465;SDS011;24244;51.950;5.902;2023-03-11T04:20:21;2.40;;;0.98;;
38465;SDS011;24244;51.950;5.902;2023-03-11T04:22:48;2.10;;;0.85;;
38465;SDS011;24244;51.950;5.902;2023-03-11T04:25:15;3.38;;;0.98;;
38465;SDS011;24244;51.950;5.902;2023-03-11T04:27:43;1.10;;;0.82;;
38465;SDS011;24244;51.950;5.902;2023-03-11T04:30:11;3.55;;;1.13;;
38465;SDS011;24244;51.950;5.902;2023-03-11T04:32:39;2.10;;;0.90;;
38465;SDS011;24244;51.950;5.902;2023-03-11T04:35:06;1.08;;;0.82;;
38465;SDS011;24244;51.950;5.902;2023-03-11T04:37:33;3.15;;;0.73;;
38465;SDS011;24244;51.950;5.902;2023-03-11T04:40:00;1.38;;;0.73;;
38465;SDS011;24244;51.950;5.902;2023-03-11T04:42:27;1.65;;;0.90;;
38465;SDS011;24244;51.950;5.902;2023-03-11T04:44:55;1.92;;;1.02;;
38465;SDS011;24244;51.950;5.902;2023-03-11T04:47:22;1.10;;;0.75;;
38465;SDS011;24244;51.950;5.902;2023-03-11T04:49:49;0.75;;;0.47;;
38465;SDS011;24244;51.950;5.902;2023-03-11T04:52:17;1.63;;;0.75;;
38465;SDS011;24244;51.950;5.902;2023-03-11T04:54:43;1.35;;;0.60;;
38465;SDS011;24244;51.950;5.902;2023-03-11T04:57:10;1.25;;;0.63;;
38465;SDS011;24244;51.950;5.902;2023-03-11T04:59:37;1.70;;;0.63;;
38465;SDS011;24244;51.950;5.902;2023-03-11T05:02:07;1.08;;;0.70;;
38465;SDS011;24244;51.950;5.902;2023-03-11T05:04:38;1.20;;;0.70;;
38465;SDS011;24244;51.950;5.902;2023-03-11T05:07:08;1.20;;;0.82;;
38465;SDS011;24244;51.950;5.902;2023-03-11T05:09:34;1.33;;;0.73;;
38465;SDS011;24244;51.950;5.902;2023-03-11T05:12:01;1.58;;;1.48;;
38465;SDS011;24244;51.950;5.902;2023-03-11T05:14:29;0.85;;;0.65;;
38465;SDS011;24244;51.950;5.902;2023-03-11T05:16:56;1.25;;;0.82;;
38465;SDS011;24244;51.950;5.902;2023-03-11T05:19:24;1.17;;;0.70;;
38465;SDS011;24244;51.950;5.902;2023-03-11T05:21:57;2.28;;;1.05;;
38465;SDS011;24244;51.950;5.902;2023-03-11T05:24:24;1.48;;;0.93;;
38465;SDS011;24244;51.950;5.902;2023-03-11T05:26:51;1.42;;;1.10;;
38465;SDS011;24244;51.950;5.902;2023-03-11T05:29:18;2.28;;;1.20;;
38465;SDS011;24244;51.950;5.902;2023-03-11T05:31:46;1.50;;;0.73;;
38465;SDS011;24244;51.950;5.902;2023-03-11T05:34:13;0.65;;;0.60;;
38465;SDS011;24244;51.950;5.902;2023-03-11T05:36:42;1.23;;;0.85;;
38465;SDS011;24244;51.950;5.902;2023-03-11T05:39:09;0.82;;;0.77;;
38465;SDS011;24244;51.950;5.902;2023-03-11T05:41:36;0.85;;;0.55;;
38465;SDS011;24244;51.950;5.902;2023-03-11T05:44:03;0.85;;;0.82;;
38465;SDS011;24244;51.950;5.902;2023-03-11T05:46:31;0.82;;;0.63;;
38465;SDS011;24244;51.950;5.902;2023-03-11T05:48:58;1.65;;;0.93;;
38465;SDS011;24244;51.950;5.902;2023-03-11T05:51:25;0.82;;;0.82;;
38465;SDS011;24244;51.950;5.902;2023-03-11T05:53:55;1.75;;;0.77;;
38465;SDS011;24244;51.950;5.902;2023-03-11T05:56:22;2.95;;;1.65;;
38465;SDS011;24244;51.950;5.902;2023-03-11T05:58:49;1.25;;;0.98;;
38465;SDS011;24244;51.950;5.902;2023-03-11T06:01:17;2.33;;;1.13;;
38465;SDS011;24244;51.950;5.902;2023-03-11T06:03:44;0.80;;;0.52;;
38465;SDS011;24244;51.950;5.902;2023-03-11T06:06:12;2.78;;;0.73;;
38465;SDS011;24244;51.950;5.902;2023-03-11T06:08:39;1.63;;;1.08;;
38465;SDS011;24244;51.950;5.902;2023-03-11T06:11:12;1.00;;;0.63;;
38465;SDS011;24244;51.950;5.902;2023-03-11T06:13:39;1.88;;;1.75;;
38465;SDS011;24244;51.950;5.902;2023-03-11T06:16:06;1.33;;;0.82;;
38465;SDS011;24244;51.950;5.902;2023-03-11T06:18:34;1.85;;;1.27;;
38465;SDS011;24244;51.950;5.902;2023-03-11T06:21:01;2.30;;;1.02;;
38465;SDS011;24244;51.950;5.902;2023-03-11T06:23:29;1.25;;;0.95;;
38465;SDS011;24244;51.950;5.902;2023-03-11T06:25:56;2.67;;;0.98;;
38465;SDS011;24244;51.950;5.902;2023-03-11T06:28:24;1.90;;;1.75;;
38465;SDS011;24244;51.950;5.902;2023-03-11T06:30:52;1.48;;;1.02;;
38465;SDS011;24244;51.950;5.902;2023-03-11T06:33:22;1.75;;;1.15;;
38465;SDS011;24244;51.950;5.902;2023-03-11T06:35:55;1.65;;;0.82;;
38465;SDS011;24244;51.950;5.902;2023-03-11T06:38:23;1.95;;;1.10;;
38465;SDS011;24244;51.950;5.902;2023-03-11T06:40:50;0.93;;;0.63;;
38465;SDS011;24244;51.950;5.902;2023-03-11T06:43:18;1.20;;;0.77;;
38465;SDS011;24244;51.950;5.902;2023-03-11T06:45:51;0.95;;;0.82;;
38465;SDS011;24244;51.950;5.902;2023-03-11T06:48:18;2.92;;;1.02;;
38465;SDS011;24244;51.950;5.902;2023-03-11T06:50:52;1.48;;;1.05;;
38465;SDS011;24244;51.950;5.902;2023-03-11T06:53:19;1.23;;;0.80;;
38465;SDS011;24244;51.950;5.902;2023-03-11T06:55:56;4.28;;;1.15;;
38465;SDS011;24244;51.950;5.902;2023-03-11T06:58:23;0.85;;;0.75;;
38465;SDS011;24244;51.950;5.902;2023-03-11T07:00:51;2.63;;;1.05;;
38465;SDS011;24244;51.950;5.902;2023-03-11T07:03:18;1.55;;;1.05;;
38465;SDS011;24244;51.950;5.902;2023-03-11T07:05:48;2.83;;;0.88;;
38465;SDS011;24244;51.950;5.902;2023-03-11T07:08:16;3.63;;;1.45;;
38465;SDS011;24244;51.950;5.902;2023-03-11T07:10:44;5.40;;;1.50;;
38465;SDS011;24244;51.950;5.902;2023-03-11T07:13:11;1.45;;;1.08;;
38465;SDS011;24244;51.950;5.902;2023-03-11T07:15:38;1.10;;;1.00;;
38465;SDS011;24244;51.950;5.902;2023-03-11T07:18:08;1.27;;;1.10;;
38465;SDS011;24244;51.950;5.902;2023-03-11T07:20:35;1.38;;;1.02;;
38465;SDS011;24244;51.950;5.902;2023-03-11T07:23:02;1.40;;;0.80;;
38465;SDS011;24244;51.950;5.902;2023-03-11T07:25:29;2.80;;;0.93;;
38465;SDS011;24244;51.950;5.902;2023-03-11T07:27:56;1.73;;;1.13;;
38465;SDS011;24244;51.950;5.902;2023-03-11T07:30:22;1.02;;;0.63;;
38465;SDS011;24244;51.950;5.902;2023-03-11T07:32:49;1.88;;;1.67;;
38465;SDS011;24244;51.950;5.902;2023-03-11T07:35:17;1.08;;;1.00;;
38465;SDS011;24244;51.950;5.902;2023-03-11T07:37:44;1.45;;;1.20;;
38465;SDS011;24244;51.950;5.902;2023-03-11T07:40:11;2.13;;;0.95;;
38465;SDS011;24244;51.950;5.902;2023-03-11T07:42:38;1.30;;;0.90;;
38465;SDS011;24244;51.950;5.902;2023-03-11T07:45:06;1.55;;;0.90;;
38465;SDS011;24244;51.950;5.902;2023-03-11T07:47:33;0.75;;;0.63;;
38465;SDS011;24244;51.950;5.902;2023-03-11T07:50:00;2.20;;;0.88;;
38465;SDS011;24244;51.950;5.902;2023-03-11T07:52:30;2.50;;;0.88;;
38465;SDS011;24244;51.950;5.902;2023-03-11T07:54:57;3.45;;;1.05;;
38465;SDS011;24244;51.950;5.902;2023-03-11T07:57:24;1.77;;;1.65;;
38465;SDS011;24244;51.950;5.902;2023-03-11T07:59:51;1.17;;;0.88;;
38465;SDS011;24244;51.950;5.902;2023-03-11T08:02:18;1.85;;;1.75;;
38465;SDS011;24244;51.950;5.902;2023-03-11T08:04:45;2.17;;;1.42;;
38465;SDS011;24244;51.950;5.902;2023-03-11T08:07:13;1.15;;;1.00;;
38465;SDS011;24244;51.950;5.902;2023-03-11T08:09:41;2.28;;;1.23;;
38465;SDS011;24244;51.950;5.902;2023-03-11T08:12:10;0.90;;;0.73;;
38465;SDS011;24244;51.950;5.902;2023-03-11T08:14:38;0.80;;;0.57;;
38465;SDS011;24244;51.950;5.902;2023-03-11T08:17:05;1.23;;;1.13;;
38465;SDS011;24244;51.950;5.902;2023-03-11T08:19:32;1.02;;;0.77;;
38465;SDS011;24244;51.950;5.902;2023-03-11T08:22:00;1.00;;;0.85;;
38465;SDS011;24244;51.950;5.902;2023-03-11T08:24:27;2.08;;;0.88;;
38465;SDS011;24244;51.950;5.902;2023-03-11T08:26:55;3.05;;;0.82;;
38465;SDS011;24244;51.950;5.902;2023-03-11T08:29:22;1.30;;;1.05;;
38465;SDS011;24244;51.950;5.902;2023-03-11T08:31:49;1.85;;;0.98;;
38465;SDS011;24244;51.950;5.902;2023-03-11T08:34:16;1.02;;;0.70;;
38465;SDS011;24244;51.950;5.902;2023-03-11T08:36:44;2.13;;;1.02;;
38465;SDS011;24244;51.950;5.902;2023-03-11T08:39:11;1.38;;;0.82;;
38465;SDS011;24244;51.950;5.902;2023-03-11T08:41:38;1.58;;;0.82;;
38465;SDS011;24244;51.950;5.902;2023-03-11T08:44:06;1.23;;;0.63;;
38465;SDS011;24244;51.950;5.902;2023-03-11T08:46:34;1.15;;;0.85;;
38465;SDS011;24244;51.950;5.902;2023-03-11T08:49:04;1.27;;;0.93;;
38465;SDS011;24244;51.950;5.902;2023-03-11T08:51:34;1.33;;;0.77;;
38465;SDS011;24244;51.950;5.902;2023-03-11T08:54:02;1.98;;;0.63;;
38465;SDS011;24244;51.950;5.902;2023-03-11T08:56:29;1.23;;;0.75;;
38465;SDS011;24244;51.950;5.902;2023-03-11T08:58:56;0.45;;;0.38;;
38465;SDS011;24244;51.950;5.902;2023-03-11T09:01:26;1.77;;;1.67;;
38465;SDS011;24244;51.950;5.902;2023-03-11T09:03:54;0.63;;;0.52;;
38465;SDS011;24244;51.950;5.902;2023-03-11T09:06:21;0.82;;;0.55;;
38465;SDS011;24244;51.950;5.902;2023-03-11T09:08:49;1.00;;;0.45;;
38465;SDS011;24244;51.950;5.902;2023-03-11T09:11:17;1.88;;;0.73;;
38465;SDS011;24244;51.950;5.902;2023-03-11T09:13:48;0.93;;;0.52;;
38465;SDS011;24244;51.950;5.902;2023-03-11T09:16:17;1.17;;;0.82;;
38465;SDS011;24244;51.950;5.902;2023-03-11T09:18:46;3.97;;;0.93;;
38465;SDS011;24244;51.950;5.902;2023-03-11T09:21:13;0.95;;;0.50;;
38465;SDS011;24244;51.950;5.902;2023-03-11T09:23:41;0.85;;;0.60;;
38465;SDS011;24244;51.950;5.902;2023-03-11T09:26:09;0.38;;;0.38;;
38465;SDS011;24244;51.950;5.902;2023-03-11T09:28:37;1.30;;;0.90;;
38465;SDS011;24244;51.950;5.902;2023-03-11T09:31:04;0.65;;;0.43;;
38465;SDS011;24244;51.950;5.902;2023-03-11T09:33:35;0.63;;;0.45;;
38465;SDS011;24244;51.950;5.902;2023-03-11T09:36:05;0.73;;;0.52;;
38465;SDS011;24244;51.950;5.902;2023-03-11T09:38:34;0.73;;;0.47;;
38465;SDS011;24244;51.950;5.902;2023-03-11T09:41:02;0.82;;;0.35;;
38465;SDS011;24244;51.950;5.902;2023-03-11T09:43:43;1.08;;;0.60;;
38465;SDS011;24244;51.950;5.902;2023-03-11T09:46:21;1.60;;;0.90;;
38465;SDS011;24244;51.950;5.902;2023-03-11T09:48:59;1.50;;;0.65;;
38465;SDS011;24244;51.950;5.902;2023-03-11T09:51:40;0.85;;;0.82;;
38465;SDS011;24244;51.950;5.902;2023-03-11T09:54:11;0.80;;;0.60;;
38465;SDS011;24244;51.950;5.902;2023-03-11T09:56:39;1.13;;;0.63;;
38465;SDS011;24244;51.950;5.902;2023-03-11T09:59:12;0.98;;;0.52;;
38465;SDS011;24244;51.950;5.902;2023-03-11T10:01:44;0.95;;;0.57;;
38465;SDS011;24244;51.950;5.902;2023-03-11T10:04:20;0.80;;;0.65;;
38465;SDS011;24244;51.950;5.902;2023-03-11T10:06:53;2.42;;;0.63;;
38465;SDS011;24244;51.950;5.902;2023-03-11T10:09:25;0.70;;;0.45;;
38465;SDS011;24244;51.950;5.902;2023-03-11T10:12:12;1.15;;;0.70;;
38465;SDS011;24244;51.950;5.902;2023-03-11T10:14:58;0.60;;;0.52;;
38465;SDS011;24244;51.950;5.902;2023-03-11T10:17:42;0.57;;;0.57;;
38465;SDS011;24244;51.950;5.902;2023-03-11T10:20:17;1.33;;;0.70;;
38465;SDS011;24244;51.950;5.902;2023-03-11T10:22:51;1.25;;;0.77;;
38465;SDS011;24244;51.950;5.902;2023-03-11T10:25:25;2.30;;;1.45;;
38465;SDS011;24244;51.950;5.902;2023-03-11T10:27:56;2.65;;;2.10;;
38465;SDS011;24244;51.950;5.902;2023-03-11T10:30:28;3.15;;;2.15;;
38465;SDS011;24244;51.950;5.902;2023-03-11T10:33:02;2.22;;;1.73;;
38465;SDS011;24244;51.950;5.902;2023-03-11T10:35:35;2.28;;;1.33;;
38465;SDS011;24244;51.950;5.902;2023-03-11T10:38:09;2.42;;;1.30;;
38465;SDS011;24244;51.950;5.902;2023-03-11T10:40:46;3.47;;;1.10;;
38465;SDS011;24244;51.950;5.902;2023-03-11T10:43:15;1.00;;;0.63;;
38465;SDS011;24244;51.950;5.902;2023-03-11T10:45:47;2.20;;;1.02;;
38465;SDS011;24244;51.950;5.902;2023-03-11T10:48:17;1.17;;;0.80;;
38465;SDS011;24244;51.950;5.902;2023-03-11T10:50:49;2.80;;;1.33;;
38465;SDS011;24244;51.950;5.902;2023-03-11T10:53:26;4.07;;;2.08;;
38465;SDS011;24244;51.950;5.902;2023-03-11T10:55:55;3.25;;;2.10;;
38465;SDS011;24244;51.950;5.902;2023-03-11T10:58:25;2.92;;;1.63;;
38465;SDS011;24244;51.950;5.902;2023-03-11T11:01:02;4.10;;;2.10;;
38465;SDS011;24244;51.950;5.902;2023-03-11T11:03:34;2.33;;;1.02;;
38465;SDS011;24244;51.950;5.902;2023-03-11T11:06:03;2.70;;;0.68;;
38465;SDS011;24244;51.950;5.902;2023-03-11T11:08:33;2.20;;;0.63;;
38465;SDS011;24244;51.950;5.902;2023-03-11T11:11:00;0.98;;;0.57;;
38465;SDS011;24244;51.950;5.902;2023-03-11T11:13:29;1.98;;;0.73;;
38465;SDS011;24244;51.950;5.902;2023-03-11T11:16:00;2.35;;;0.82;;
38465;SDS011;24244;51.950;5.902;2023-03-11T11:18:30;2.17;;;0.57;;
38465;SDS011;24244;51.950;5.902;2023-03-11T11:21:00;1.55;;;0.65;;
38465;SDS011;24244;51.950;5.902;2023-03-11T11:23:31;1.63;;;0.63;;
38465;SDS011;24244;51.950;5.902;2023-03-11T11:26:03;3.13;;;0.50;;
38465;SDS011;24244;51.950;5.902;2023-03-11T11:28:32;1.40;;;0.52;;
38465;SDS011;24244;51.950;5.902;2023-03-11T11:31:00;1.27;;;0.65;;
38465;SDS011;24244;51.950;5.902;2023-03-11T11:33:30;0.50;;;0.28;;
38465;SDS011;24244;51.950;5.902;2023-03-11T11:36:01;1.00;;;0.38;;
38465;SDS011;24244;51.950;5.902;2023-03-11T11:38:30;1.10;;;0.50;;
38465;SDS011;24244;51.950;5.902;2023-03-11T11:41:00;1.58;;;0.40;;
38465;SDS011;24244;51.950;5.902;2023-03-11T11:43:40;2.50;;;0.80;;
38465;SDS011;24244;51.950;5.902;2023-03-11T11:46:14;0.90;;;0.50;;
38465;SDS011;24244;51.950;5.902;2023-03-11T11:48:48;2.10;;;0.43;;
38465;SDS011;24244;51.950;5.902;2023-03-11T11:51:22;0.73;;;0.52;;
38465;SDS011;24244;51.950;5.902;2023-03-11T11:53:56;3.83;;;2.70;;
38465;SDS011;24244;51.950;5.902;2023-03-11T11:56:27;5.55;;;3.40;;
38465;SDS011;24244;51.950;5.902;2023-03-11T11:58:54;3.95;;;2.20;;
38465;SDS011;24244;51.950;5.902;2023-03-11T12:01:24;4.32;;;2.38;;
38465;SDS011;24244;51.950;5.902;2023-03-11T12:04:03;4.22;;;1.85;;
38465;SDS011;24244;51.950;5.902;2023-03-11T12:06:46;4.60;;;2.13;;
38465;SDS011;24244;51.950;5.902;2023-03-11T12:09:21;3.88;;;1.92;;
38465;SDS011;24244;51.950;5.902;2023-03-11T12:11:55;3.90;;;1.63;;
38465;SDS011;24244;51.950;5.902;2023-03-11T12:14:28;4.13;;;1.35;;
38465;SDS011;24244;51.950;5.902;2023-03-11T12:17:02;1.95;;;1.20;;
38465;SDS011;24244;51.950;5.902;2023-03-11T12:19:33;2.08;;;1.40;;
38465;SDS011;24244;51.950;5.902;2023-03-11T12:25:18;2.00;;;0.73;;
38465;SDS011;24244;51.950;5.902;2023-03-11T12:27:58;1.58;;;0.63;;
38465;SDS011;24244;51.950;5.902;2023-03-11T12:30:32;0.98;;;0.60;;
38465;SDS011;24244;51.950;5.902;2023-03-11T12:33:02;2.72;;;0.55;;
38465;SDS011;24244;51.950;5.902;2023-03-11T12:35:32;1.23;;;0.60;;
38465;SDS011;24244;51.950;5.902;2023-03-11T12:38:03;0.85;;;0.40;;
38465;SDS011;24244;51.950;5.902;2023-03-11T12:40:45;2.60;;;0.52;;
38465;SDS011;24244;51.950;5.902;2023-03-11T12:49:38;1.02;;;0.93;;
38465;SDS011;24244;51.950;5.902;2023-03-11T12:52:16;1.13;;;0.50;;
38465;SDS011;24244;51.950;5.902;2023-03-11T12:54:48;0.98;;;0.52;;
38465;SDS011;24244;51.950;5.902;2023-03-11T12:57:39;0.70;;;0.38;;
38465;SDS011;24244;51.950;5.902;2023-03-11T13:00:20;2.15;;;0.70;;
38465;SDS011;24244;51.950;5.902;2023-03-11T13:03:01;1.88;;;0.32;;
38465;SDS011;24244;51.950;5.902;2023-03-11T13:05:49;0.93;;;0.40;;
38465;SDS011;24244;51.950;5.902;2023-03-11T13:08:22;1.10;;;0.32;;
38465;SDS011;24244;51.950;5.902;2023-03-11T13:10:53;2.72;;;0.52;;
38465;SDS011;24244;51.950;5.902;2023-03-11T13:28:02;1.42;;;0.43;;
38465;SDS011;24244;51.950;5.902;2023-03-11T13:30:51;1.30;;;0.43;;
38465;SDS011;24244;51.950;5.902;2023-03-11T13:33:35;1.48;;;0.50;;
38465;SDS011;24244;51.950;5.902;2023-03-11T13:36:16;1.20;;;1.10;;
38465;SDS011;24244;51.950;5.902;2023-03-11T13:42:16;0.35;;;0.20;;
38465;SDS011;24244;51.950;5.902;2023-03-11T13:44:51;0.75;;;0.22;;
38465;SDS011;24244;51.950;5.902;2023-03-11T13:47:20;1.42;;;0.68;;
38465;SDS011;24244;51.950;5.902;2023-03-11T13:49:49;0.55;;;0.25;;
38465;SDS011;24244;51.950;5.902;2023-03-11T13:52:22;0.47;;;0.22;;
38465;SDS011;24244;51.950;5.902;2023-03-11T13:54:53;0.85;;;0.38;;
38465;SDS011;24244;51.950;5.902;2023-03-11T13:57:27;0.85;;;0.22;;
38465;SDS011;24244;51.950;5.902;2023-03-11T13:59:55;1.40;;;0.70;;
38465;SDS011;24244;51.950;5.902;2023-03-11T14:02:25;1.35;;;0.30;;
38465;SDS011;24244;51.950;5.902;2023-03-11T14:04:53;1.73;;;0.22;;
38465;SDS011;24244;51.950;5.902;2023-03-11T14:07:24;1.30;;;0.98;;
38465;SDS011;24244;51.950;5.902;2023-03-11T14:10:14;1.00;;;0.40;;
38465;SDS011;24244;51.950;5.902;2023-03-11T14:13:04;1.10;;;0.50;;
38465;SDS011;24244;51.950;5.902;2023-03-11T14:15:36;2.47;;;0.45;;
38465;SDS011;24244;51.950;5.902;2023-03-11T14:18:26;1.42;;;0.63;;
38465;SDS011;24244;51.950;5.902;2023-03-11T14:21:02;2.58;;;0.60;;
38465;SDS011;24244;51.950;5.902;2023-03-11T14:23:32;1.45;;;0.90;;
38465;SDS011;24244;51.950;5.902;2023-03-11T14:26:05;1.23;;;0.63;;
38465;SDS011;24244;51.950;5.902;2023-03-11T14:28:35;1.40;;;0.70;;
38465;SDS011;24244;51.950;5.902;2023-03-11T14:31:05;2.72;;;1.85;;
38465;SDS011;24244;51.950;5.902;2023-03-11T14:33:33;1.90;;;0.80;;
38465;SDS011;24244;51.950;5.902;2023-03-11T14:36:01;1.88;;;0.93;;
38465;SDS011;24244;51.950;5.902;2023-03-11T14:38:30;7.28;;;4.15;;
38465;SDS011;24244;51.950;5.902;2023-03-11T14:40:58;6.85;;;4.30;;
38465;SDS011;24244;51.950;5.902;2023-03-11T14:43:26;7.72;;;4.03;;
38465;SDS011;24244;51.950;5.902;2023-03-11T14:45:57;7.85;;;4.97;;
38465;SDS011;24244;51.950;5.902;2023-03-11T14:48:26;6.93;;;3.55;;
38465;SDS011;24244;51.950;5.902;2023-03-11T14:50:57;5.97;;;3.65;;
38465;SDS011;24244;51.950;5.902;2023-03-11T14:53:26;5.53;;;2.28;;
38465;SDS011;24244;51.950;5.902;2023-03-11T14:55:58;8.18;;;5.25;;
38465;SDS011;24244;51.950;5.902;2023-03-11T14:58:30;5.28;;;3.47;;
38465;SDS011;24244;51.950;5.902;2023-03-11T15:01:03;4.93;;;2.50;;
38465;SDS011;24244;51.950;5.902;2023-03-11T15:03:36;4.38;;;2.88;;
38465;SDS011;24244;51.950;5.902;2023-03-11T15:06:08;5.60;;;3.10;;
38465;SDS011;24244;51.950;5.902;2023-03-11T15:08:41;5.22;;;2.15;;
38465;SDS011;24244;51.950;5.902;2023-03-11T15:11:18;3.75;;;2.45;;
38465;SDS011;24244;51.950;5.902;2023-03-11T15:13:47;4.90;;;2.53;;
38465;SDS011;24244;51.950;5.902;2023-03-11T15:16:20;1.83;;;0.93;;
38465;SDS011;24244;51.950;5.902;2023-03-11T15:18:54;3.22;;;1.20;;
38465;SDS011;24244;51.950;5.902;2023-03-11T15:21:23;3.97;;;1.67;;
38465;SDS011;24244;51.950;5.902;2023-03-11T15:23:51;2.72;;;1.67;;
38465;SDS011;24244;51.950;5.902;2023-03-11T15:26:24;2.33;;;1.15;;
38465;SDS011;24244;51.950;5.902;2023-03-11T15:28:54;3.05;;;0.85;;
38465;SDS011;24244;51.950;5.902;2023-03-11T15:31:27;6.13;;;3.70;;
38465;SDS011;24244;51.950;5.902;2023-03-11T15:36:57;11.07;;;4.55;;
38465;SDS011;24244;51.950;5.902;2023-03-11T15:39:46;4.30;;;3.55;;
38465;SDS011;24244;51.950;5.902;2023-03-11T15:42:18;3.33;;;2.22;;